createdAt,value
2022-12-18T00:00:23.182Z,0
2022-12-18T00:01:23.277Z,0
2022-12-18T00:02:23.179Z,0
2022-12-18T00:03:23.262Z,0
2022-12-18T00:04:23.338Z,0
2022-12-18T00:05:23.188Z,0
2022-12-18T00:06:23.199Z,0
2022-12-18T00:07:23.172Z,0
2022-12-18T00:08:23.172Z,0
2022-12-18T00:09:24.747Z,0
2022-12-18T00:10:23.178Z,0
2022-12-18T00:11:23.207Z,0
2022-12-18T00:12:23.176Z,0
2022-12-18T00:13:23.181Z,0
2022-12-18T00:14:23.178Z,0
2022-12-18T00:15:23.176Z,0
2022-12-18T00:16:23.310Z,0
2022-12-18T00:17:23.185Z,0
2022-12-18T00:18:23.172Z,0
2022-12-18T00:19:23.176Z,0
2022-12-18T00:20:23.196Z,0
2022-12-18T00:21:23.197Z,0
2022-12-18T00:22:23.178Z,0
2022-12-18T00:23:23.174Z,0
2022-12-18T00:24:23.260Z,0
2022-12-18T00:25:23.184Z,0
2022-12-18T00:26:23.189Z,0
2022-12-18T00:27:23.177Z,0
2022-12-18T00:28:23.175Z,0
2022-12-18T00:29:23.174Z,0
2022-12-18T00:30:23.174Z,0
2022-12-18T00:31:23.227Z,0
2022-12-18T00:32:23.171Z,0
2022-12-18T00:33:23.168Z,0
2022-12-18T00:34:23.176Z,0
2022-12-18T00:35:23.198Z,0
2022-12-18T00:36:23.184Z,0
2022-12-18T00:37:23.167Z,0
2022-12-18T00:38:23.173Z,0
2022-12-18T00:39:23.178Z,0
2022-12-18T00:40:23.173Z,0
2022-12-18T00:41:23.188Z,0
2022-12-18T00:42:23.167Z,0
2022-12-18T00:43:23.167Z,0
2022-12-18T00:44:23.171Z,0
2022-12-18T00:45:23.235Z,0
2022-12-18T00:46:23.189Z,0
2022-12-18T00:47:23.175Z,0
2022-12-18T00:48:23.172Z,0
2022-12-18T00:49:23.168Z,0
2022-12-18T00:50:23.188Z,0
2022-12-18T00:51:23.185Z,0
2022-12-18T00:52:23.171Z,0
2022-12-18T00:53:23.170Z,0
2022-12-18T00:54:23.167Z,0
2022-12-18T00:55:23.172Z,0
2022-12-18T00:56:23.191Z,0
2022-12-18T00:57:23.178Z,0
2022-12-18T00:58:23.179Z,0
2022-12-18T00:59:23.172Z,0
2022-12-18T01:00:23.173Z,0
2022-12-18T01:01:23.269Z,0
2022-12-18T01:02:23.247Z,0
2022-12-18T01:03:23.180Z,0
2022-12-18T01:04:23.177Z,0
2022-12-18T01:05:23.203Z,0
2022-12-18T01:06:23.188Z,0
2022-12-18T01:07:23.181Z,0
2022-12-18T01:08:23.179Z,0
2022-12-18T01:09:23.176Z,0
2022-12-18T01:10:23.172Z,0
2022-12-18T01:11:23.191Z,0
2022-12-18T01:12:23.174Z,0
2022-12-18T01:13:23.177Z,0
2022-12-18T01:14:23.186Z,0
2022-12-18T01:15:23.184Z,0
2022-12-18T01:16:23.475Z,0
2022-12-18T01:17:23.203Z,0
2022-12-18T01:18:23.177Z,0
2022-12-18T01:19:23.180Z,0
2022-12-18T01:20:23.271Z,0
2022-12-18T01:21:23.202Z,0
2022-12-18T01:22:23.186Z,0
2022-12-18T01:23:23.198Z,0
2022-12-18T01:24:23.173Z,0
2022-12-18T01:25:23.179Z,0
2022-12-18T01:26:23.190Z,0
2022-12-18T01:27:23.171Z,0
2022-12-18T01:28:23.178Z,0
2022-12-18T01:29:23.182Z,0
2022-12-18T01:30:23.173Z,0
2022-12-18T01:31:23.338Z,0
2022-12-18T01:32:23.175Z,0
2022-12-18T01:33:23.177Z,0
2022-12-18T01:34:23.182Z,0
2022-12-18T01:35:23.187Z,0
2022-12-18T01:36:23.195Z,0
2022-12-18T01:37:23.186Z,0
2022-12-18T01:38:23.174Z,0
2022-12-18T01:39:23.169Z,0
2022-12-18T01:40:23.175Z,0
2022-12-18T01:41:23.196Z,0
2022-12-18T01:42:23.173Z,0
2022-12-18T01:43:23.167Z,0
2022-12-18T01:44:23.170Z,0
2022-12-18T01:45:23.173Z,0
2022-12-18T01:46:23.188Z,0
2022-12-18T01:47:23.171Z,0
2022-12-18T01:48:23.174Z,0
2022-12-18T01:49:23.168Z,0
2022-12-18T01:50:23.186Z,0
2022-12-18T01:51:23.184Z,0
2022-12-18T01:52:23.171Z,0
2022-12-18T01:53:23.172Z,0
2022-12-18T01:54:23.169Z,0
2022-12-18T01:55:23.166Z,0
2022-12-18T01:56:23.192Z,0
2022-12-18T01:57:23.171Z,0
2022-12-18T01:58:23.175Z,0
2022-12-18T01:59:23.173Z,0
2022-12-18T02:00:23.168Z,0
2022-12-18T02:01:23.343Z,0
2022-12-18T02:02:23.296Z,0
2022-12-18T02:03:23.252Z,0
2022-12-18T02:04:23.178Z,0
2022-12-18T02:05:23.184Z,0
2022-12-18T02:06:23.185Z,0
2022-12-18T02:07:23.174Z,0
2022-12-18T02:08:23.175Z,0
2022-12-18T02:09:23.177Z,0
2022-12-18T02:10:23.214Z,0
2022-12-18T02:11:23.193Z,0
2022-12-18T02:12:23.177Z,0
2022-12-18T02:13:23.181Z,0
2022-12-18T02:14:23.177Z,0
2022-12-18T02:15:23.176Z,0
2022-12-18T02:16:23.388Z,0
2022-12-18T02:17:23.173Z,0
2022-12-18T02:18:23.175Z,0
2022-12-18T02:19:23.178Z,0
2022-12-18T02:20:23.194Z,0
2022-12-18T02:21:23.189Z,0
2022-12-18T02:22:23.169Z,0
2022-12-18T02:23:23.181Z,0
2022-12-18T02:24:23.177Z,0
2022-12-18T02:25:23.183Z,0
2022-12-18T02:26:23.187Z,0
2022-12-18T02:27:23.174Z,0
2022-12-18T02:28:23.171Z,0
2022-12-18T02:29:23.179Z,0
2022-12-18T02:30:23.224Z,0
2022-12-18T02:31:23.183Z,0
2022-12-18T02:32:23.163Z,0
2022-12-18T02:33:23.171Z,0
2022-12-18T02:34:23.178Z,0
2022-12-18T02:35:23.181Z,0
2022-12-18T02:36:23.184Z,0
2022-12-18T02:37:23.165Z,0
2022-12-18T02:38:23.179Z,0
2022-12-18T02:39:23.179Z,0
2022-12-18T02:40:23.178Z,0
2022-12-18T02:41:23.183Z,0
2022-12-18T02:42:23.167Z,0
2022-12-18T02:43:23.172Z,0
2022-12-18T02:44:23.176Z,0
2022-12-18T02:45:23.167Z,0
2022-12-18T02:46:23.182Z,0
2022-12-18T02:47:23.170Z,0
2022-12-18T02:48:23.176Z,0
2022-12-18T02:49:23.167Z,0
2022-12-18T02:50:23.180Z,0
2022-12-18T02:51:23.175Z,0
2022-12-18T02:52:23.167Z,0
2022-12-18T02:53:23.184Z,0
2022-12-18T02:54:23.167Z,0
2022-12-18T02:55:23.167Z,0
2022-12-18T02:56:23.173Z,0
2022-12-18T02:57:23.163Z,0
2022-12-18T02:58:23.160Z,0
2022-12-18T02:59:23.172Z,0
2022-12-18T03:00:23.163Z,0
2022-12-18T03:01:23.288Z,0
2022-12-18T03:02:23.345Z,0
2022-12-18T03:03:23.191Z,0
2022-12-18T03:04:23.159Z,0
2022-12-18T03:05:23.184Z,0
2022-12-18T03:06:23.186Z,0
2022-12-18T03:07:23.163Z,0
2022-12-18T03:08:23.158Z,0
2022-12-18T03:09:23.160Z,0
2022-12-18T03:10:23.162Z,0
2022-12-18T03:11:23.186Z,0
2022-12-18T03:12:23.169Z,0
2022-12-18T03:13:23.161Z,0
2022-12-18T03:14:23.166Z,0
2022-12-18T03:15:23.160Z,0
2022-12-18T03:16:23.253Z,0
2022-12-18T03:17:23.172Z,0
2022-12-18T03:18:23.172Z,0
2022-12-18T03:19:23.161Z,0
2022-12-18T03:20:23.183Z,0
2022-12-18T03:21:23.190Z,0
2022-12-18T03:22:23.182Z,0
2022-12-18T03:23:26.085Z,0
2022-12-18T03:24:23.159Z,0
2022-12-18T03:25:23.160Z,0
2022-12-18T03:26:23.186Z,0
2022-12-18T03:27:23.172Z,0
2022-12-18T03:28:23.167Z,0
2022-12-18T03:29:23.165Z,0
2022-12-18T03:30:23.158Z,0
2022-12-18T03:31:23.284Z,0
2022-12-18T03:32:23.165Z,0
2022-12-18T03:33:23.160Z,0
2022-12-18T03:34:23.172Z,0
2022-12-18T03:35:23.183Z,0
2022-12-18T03:36:23.176Z,0
2022-12-18T03:37:23.169Z,0
2022-12-18T03:38:23.174Z,0
2022-12-18T03:39:23.175Z,0
2022-12-18T03:40:23.170Z,0
2022-12-18T03:41:23.186Z,0
2022-12-18T03:42:23.173Z,0
2022-12-18T03:43:23.168Z,0
2022-12-18T03:44:23.167Z,0
2022-12-18T03:45:23.173Z,0
2022-12-18T03:46:23.244Z,0
2022-12-18T03:47:23.170Z,0
2022-12-18T03:48:23.161Z,0
2022-12-18T03:49:23.239Z,0
2022-12-18T03:50:23.180Z,0
2022-12-18T03:51:23.178Z,0
2022-12-18T03:52:23.157Z,0
2022-12-18T03:53:23.168Z,0
2022-12-18T03:54:23.168Z,0
2022-12-18T03:55:23.159Z,0
2022-12-18T03:56:23.182Z,0
2022-12-18T03:57:23.171Z,0
2022-12-18T03:58:23.162Z,0
2022-12-18T03:59:23.178Z,0
2022-12-18T04:00:23.170Z,0
2022-12-18T04:01:23.293Z,0
2022-12-18T04:02:23.291Z,0
2022-12-18T04:03:26.440Z,0
2022-12-18T04:04:23.169Z,0
2022-12-18T04:05:23.181Z,0
2022-12-18T04:06:23.174Z,0
2022-12-18T04:07:23.164Z,0
2022-12-18T04:08:23.166Z,0
2022-12-18T04:09:23.167Z,0
2022-12-18T04:10:23.162Z,0
2022-12-18T04:11:23.178Z,0
2022-12-18T04:12:23.159Z,0
2022-12-18T04:13:23.158Z,0
2022-12-18T04:14:23.164Z,0
2022-12-18T04:15:23.164Z,0
2022-12-18T04:16:23.183Z,0
2022-12-18T04:17:23.160Z,0
2022-12-18T04:18:23.162Z,0
2022-12-18T04:19:23.165Z,0
2022-12-18T04:20:23.184Z,0
2022-12-18T04:21:23.178Z,0
2022-12-18T04:22:23.164Z,0
2022-12-18T04:23:23.167Z,0
2022-12-18T04:24:23.163Z,0
2022-12-18T04:25:23.170Z,0
2022-12-18T04:26:23.185Z,0
2022-12-18T04:27:23.184Z,0
2022-12-18T04:28:23.170Z,0
2022-12-18T04:29:23.161Z,0
2022-12-18T04:30:23.158Z,0
2022-12-18T04:31:23.235Z,0
2022-12-18T04:32:23.178Z,0
2022-12-18T04:33:23.166Z,0
2022-12-18T04:34:23.171Z,0
2022-12-18T04:35:23.182Z,0
2022-12-18T04:36:23.217Z,0
2022-12-18T04:37:23.167Z,0
2022-12-18T04:38:23.168Z,0
2022-12-18T04:39:23.269Z,0
2022-12-18T04:40:23.171Z,0
2022-12-18T04:41:23.184Z,0
2022-12-18T04:42:23.165Z,0
2022-12-18T04:43:23.225Z,0
2022-12-18T04:44:23.168Z,0
2022-12-18T04:45:23.168Z,0
2022-12-18T04:46:23.296Z,0
2022-12-18T04:47:23.165Z,0
2022-12-18T04:48:23.167Z,0
2022-12-18T04:49:23.172Z,0
2022-12-18T04:50:23.189Z,0
2022-12-18T04:51:26.391Z,0
2022-12-18T04:52:24.177Z,0
2022-12-18T04:53:23.167Z,0
2022-12-18T04:54:23.170Z,0
2022-12-18T04:55:23.175Z,0
2022-12-18T04:56:23.184Z,0
2022-12-18T04:57:23.159Z,0
2022-12-18T04:58:23.168Z,0
2022-12-18T04:59:23.204Z,0
2022-12-18T05:00:23.181Z,0
2022-12-18T05:01:23.349Z,0
2022-12-18T05:02:23.373Z,0
2022-12-18T05:03:23.195Z,0
2022-12-18T05:04:23.174Z,0
2022-12-18T05:05:23.172Z,0
2022-12-18T05:06:23.194Z,0
2022-12-18T05:07:23.182Z,0
2022-12-18T05:08:23.182Z,0
2022-12-18T05:09:23.170Z,0
2022-12-18T05:10:23.174Z,0
2022-12-18T05:11:23.177Z,0
2022-12-18T05:12:23.163Z,0
2022-12-18T05:13:23.168Z,0
2022-12-18T05:14:23.171Z,0
2022-12-18T05:15:23.164Z,0
2022-12-18T05:16:23.272Z,0
2022-12-18T05:17:23.158Z,0
2022-12-18T05:18:23.161Z,0
2022-12-18T05:19:23.162Z,0
2022-12-18T05:20:23.188Z,0
2022-12-18T05:21:23.181Z,0
2022-12-18T05:22:23.163Z,0
2022-12-18T05:23:23.163Z,0
2022-12-18T05:24:23.162Z,0
2022-12-18T05:25:23.162Z,0
2022-12-18T05:26:23.179Z,0
2022-12-18T05:27:23.163Z,0
2022-12-18T05:28:23.160Z,0
2022-12-18T05:29:23.158Z,0
2022-12-18T05:30:23.164Z,0
2022-12-18T05:31:23.338Z,0
2022-12-18T05:32:23.175Z,0
2022-12-18T05:33:23.172Z,0
2022-12-18T05:34:23.163Z,0
2022-12-18T05:35:23.176Z,0
2022-12-18T05:36:23.176Z,0
2022-12-18T05:37:23.164Z,0
2022-12-18T05:38:23.161Z,0
2022-12-18T05:39:23.163Z,0
2022-12-18T05:40:23.169Z,0
2022-12-18T05:41:23.182Z,0
2022-12-18T05:42:23.166Z,0
2022-12-18T05:43:23.232Z,0
2022-12-18T05:44:23.164Z,0
2022-12-18T05:45:23.169Z,0
2022-12-18T05:46:23.229Z,0
2022-12-18T05:47:23.166Z,0
2022-12-18T05:48:23.180Z,0
2022-12-18T05:49:23.164Z,0
2022-12-18T05:50:23.180Z,0
2022-12-18T05:51:23.189Z,0
2022-12-18T05:52:23.175Z,0
2022-12-18T05:53:23.172Z,0
2022-12-18T05:54:23.167Z,0
2022-12-18T05:55:23.160Z,0
2022-12-18T05:56:23.187Z,0
2022-12-18T05:57:23.164Z,0
2022-12-18T05:58:23.178Z,0
2022-12-18T05:59:23.173Z,0
2022-12-18T06:00:23.164Z,0
2022-12-18T06:01:23.238Z,0
2022-12-18T06:02:23.391Z,0
2022-12-18T06:03:23.298Z,0
2022-12-18T06:04:23.167Z,0
2022-12-18T06:05:23.194Z,0
2022-12-18T06:06:23.188Z,0
2022-12-18T06:07:23.168Z,0
2022-12-18T06:08:23.164Z,0
2022-12-18T06:09:23.159Z,0
2022-12-18T06:10:23.162Z,0
2022-12-18T06:11:23.191Z,0
2022-12-18T06:12:23.170Z,0
2022-12-18T06:13:23.173Z,0
2022-12-18T06:14:23.232Z,0
2022-12-18T06:15:23.168Z,0
2022-12-18T06:16:23.247Z,0
2022-12-18T06:17:23.190Z,0
2022-12-18T06:18:23.170Z,0
2022-12-18T06:19:23.160Z,0
2022-12-18T06:20:23.239Z,0
2022-12-18T06:21:23.183Z,0
2022-12-18T06:22:23.168Z,0
2022-12-18T06:23:23.163Z,0
2022-12-18T06:24:23.167Z,0
2022-12-18T06:25:23.164Z,0
2022-12-18T06:26:27.852Z,0
2022-12-18T06:27:23.158Z,1
2022-12-18T06:28:23.161Z,1
2022-12-18T06:29:23.162Z,3
2022-12-18T06:30:23.169Z,3
2022-12-18T06:31:23.271Z,5
2022-12-18T06:32:23.166Z,5
2022-12-18T06:33:23.164Z,5
2022-12-18T06:34:23.157Z,7
2022-12-18T06:35:23.179Z,9
2022-12-18T06:36:23.182Z,11
2022-12-18T06:37:23.163Z,14
2022-12-18T06:38:23.168Z,16
2022-12-18T06:39:23.158Z,18
2022-12-18T06:40:23.169Z,23
2022-12-18T06:41:23.178Z,27
2022-12-18T06:42:23.157Z,33
2022-12-18T06:43:23.169Z,36
2022-12-18T06:44:23.172Z,40
2022-12-18T06:45:23.169Z,46
2022-12-18T06:46:23.177Z,51
2022-12-18T06:47:23.165Z,57
2022-12-18T06:48:23.176Z,62
2022-12-18T06:49:27.356Z,70
2022-12-18T06:50:23.176Z,79
2022-12-18T06:51:23.183Z,86
2022-12-18T06:52:23.169Z,92
2022-12-18T06:53:23.162Z,101
2022-12-18T06:54:23.178Z,110
2022-12-18T06:55:23.166Z,123
2022-12-18T06:56:23.184Z,138
2022-12-18T06:57:23.169Z,147
2022-12-18T06:58:23.170Z,154
2022-12-18T06:59:23.167Z,164
2022-12-18T07:00:23.158Z,175
2022-12-18T07:01:23.382Z,188
2022-12-18T07:02:23.337Z,204
2022-12-18T07:03:23.167Z,217
2022-12-18T07:04:23.203Z,234
2022-12-18T07:05:23.176Z,254
2022-12-18T07:06:23.178Z,282
2022-12-18T07:07:23.162Z,296
2022-12-18T07:08:23.173Z,315
2022-12-18T07:09:23.168Z,352
2022-12-18T07:10:23.160Z,376
2022-12-18T07:11:23.196Z,385
2022-12-18T07:12:23.165Z,377
2022-12-18T07:13:23.162Z,398
2022-12-18T07:14:23.169Z,440
2022-12-18T07:15:23.170Z,447
2022-12-18T07:16:25.562Z,477
2022-12-18T07:17:23.172Z,466
2022-12-18T07:18:23.166Z,488
2022-12-18T07:19:23.164Z,517
2022-12-18T07:20:23.186Z,517
2022-12-18T07:21:23.174Z,540
2022-12-18T07:22:23.167Z,565
2022-12-18T07:23:23.173Z,595
2022-12-18T07:24:23.167Z,637
2022-12-18T07:25:23.167Z,641
2022-12-18T07:26:23.182Z,654
2022-12-18T07:27:23.163Z,689
2022-12-18T07:28:23.164Z,704
2022-12-18T07:29:23.168Z,768
2022-12-18T07:30:23.167Z,768
2022-12-18T07:31:23.317Z,884
2022-12-18T07:32:23.164Z,831
2022-12-18T07:33:23.174Z,849
2022-12-18T07:34:23.161Z,916
2022-12-18T07:35:25.197Z,954
2022-12-18T07:36:23.173Z,941
2022-12-18T07:37:23.158Z,914
2022-12-18T07:38:23.164Z,897
2022-12-18T07:39:23.168Z,975
2022-12-18T07:40:23.166Z,1017
2022-12-18T07:41:23.211Z,1002
2022-12-18T07:42:23.158Z,1150
2022-12-18T07:43:23.164Z,1058
2022-12-18T07:44:23.158Z,1152
2022-12-18T07:45:23.157Z,1181
2022-12-18T07:46:23.238Z,1273
2022-12-18T07:47:23.161Z,1170
2022-12-18T07:48:23.172Z,1170
2022-12-18T07:49:23.163Z,1253
2022-12-18T07:50:23.175Z,1205
2022-12-18T07:51:23.175Z,1286
2022-12-18T07:52:26.184Z,1277
2022-12-18T07:53:23.166Z,1411
2022-12-18T07:54:23.162Z,1258
2022-12-18T07:55:23.165Z,1277
2022-12-18T07:56:28.109Z,1340
2022-12-18T07:57:48.934Z,1334
2022-12-18T07:58:23.159Z,1371
2022-12-18T07:59:23.174Z,1384
2022-12-18T08:00:23.176Z,1478
2022-12-18T08:01:23.465Z,1518
2022-12-18T08:02:23.354Z,1563
2022-12-18T08:03:23.288Z,1539
2022-12-18T08:04:23.161Z,1502
2022-12-18T08:05:23.191Z,1575
2022-12-18T08:06:24.568Z,1763
2022-12-18T08:07:23.179Z,1692
2022-12-18T08:08:23.172Z,1587
2022-12-18T08:09:23.191Z,1561
2022-12-18T08:10:23.163Z,1564
2022-12-18T08:11:23.178Z,1837
2022-12-18T08:12:23.171Z,1837
2022-12-18T08:13:23.166Z,1939
2022-12-18T08:14:23.170Z,2121
2022-12-18T08:15:23.166Z,2278
2022-12-18T08:16:23.312Z,2576
2022-12-18T08:17:23.175Z,2565
2022-12-18T08:18:23.170Z,2744
2022-12-18T08:19:23.167Z,2248
2022-12-18T08:20:23.178Z,2372
2022-12-18T08:21:23.185Z,2633
2022-12-18T08:22:23.169Z,2473
2022-12-18T08:23:23.170Z,2407
2022-12-18T08:24:23.173Z,2593
2022-12-18T08:25:23.168Z,2573
2022-12-18T08:26:23.181Z,3061
2022-12-18T08:27:30.434Z,3127
2022-12-18T08:28:23.172Z,2845
2022-12-18T08:29:23.172Z,2934
2022-12-18T08:30:23.161Z,2934
2022-12-18T08:31:23.504Z,2644
2022-12-18T08:32:23.196Z,2998
2022-12-18T08:33:23.159Z,2880
2022-12-18T08:34:23.163Z,2919
2022-12-18T08:35:23.185Z,3467
2022-12-18T08:36:23.182Z,3310
2022-12-18T08:37:23.177Z,2973
2022-12-18T08:38:23.165Z,3238
2022-12-18T08:39:23.180Z,3360
2022-12-18T08:40:23.172Z,3610
2022-12-18T08:41:23.185Z,4156
2022-12-18T08:42:23.170Z,4239
2022-12-18T08:43:23.181Z,3900
2022-12-18T08:44:23.169Z,3863
2022-12-18T08:45:23.161Z,4053
2022-12-18T08:46:23.360Z,4152
2022-12-18T08:47:23.207Z,4003
2022-12-18T08:48:23.182Z,4217
2022-12-18T08:49:23.161Z,4040
2022-12-18T08:50:23.277Z,4502
2022-12-18T08:51:23.177Z,4055
2022-12-18T08:52:23.160Z,4805
2022-12-18T08:53:23.189Z,5339
2022-12-18T08:54:23.168Z,6665
2022-12-18T08:55:23.167Z,8275
2022-12-18T08:56:23.178Z,5835
2022-12-18T08:57:23.157Z,5330
2022-12-18T08:58:23.161Z,8908
2022-12-18T08:59:23.163Z,7275
2022-12-18T09:00:23.158Z,9608
2022-12-18T09:01:23.300Z,7582
2022-12-18T09:02:23.374Z,7566
2022-12-18T09:03:23.238Z,10248
2022-12-18T09:04:23.160Z,7090
2022-12-18T09:05:23.176Z,11516
2022-12-18T09:06:23.174Z,11475
2022-12-18T09:07:23.164Z,11470
2022-12-18T09:08:23.162Z,6871
2022-12-18T09:09:23.169Z,5887
2022-12-18T09:10:23.191Z,7466
2022-12-18T09:11:23.176Z,8084
2022-12-18T09:12:23.160Z,7002
2022-12-18T09:13:23.167Z,7759
2022-12-18T09:14:23.169Z,6633
2022-12-18T09:15:23.170Z,7404
2022-12-18T09:16:27.362Z,10546
2022-12-18T09:17:23.230Z,5584
2022-12-18T09:18:23.181Z,7048
2022-12-18T09:19:23.172Z,6277
2022-12-18T09:20:23.267Z,6277
2022-12-18T09:21:23.201Z,7636
2022-12-18T09:22:23.168Z,5325
2022-12-18T09:23:23.167Z,4727
2022-12-18T09:24:23.169Z,7859
2022-12-18T09:25:23.169Z,4746
2022-12-18T09:26:23.179Z,4399
2022-12-18T09:27:23.167Z,4309
2022-12-18T09:28:23.173Z,4499
2022-12-18T09:29:23.173Z,4598
2022-12-18T09:30:23.256Z,4598
2022-12-18T09:31:23.259Z,4648
2022-12-18T09:32:23.171Z,4786
2022-12-18T09:33:23.169Z,4744
2022-12-18T09:34:23.409Z,4783
2022-12-18T09:35:23.185Z,4882
2022-12-18T09:36:23.184Z,4749
2022-12-18T09:37:23.178Z,5457
2022-12-18T09:38:23.182Z,6141
2022-12-18T09:39:24.224Z,6876
2022-12-18T09:40:23.165Z,7048
2022-12-18T09:41:23.183Z,8668
2022-12-18T09:42:23.171Z,8301
2022-12-18T09:43:23.163Z,5865
2022-12-18T09:44:23.190Z,9422
2022-12-18T09:45:23.171Z,5568
2022-12-18T09:46:23.296Z,5083
2022-12-18T09:47:23.168Z,5019
2022-12-18T09:48:23.170Z,5089
2022-12-18T09:49:23.168Z,6141
2022-12-18T09:50:23.183Z,6143
2022-12-18T09:51:23.184Z,5995
2022-12-18T09:52:23.177Z,6744
2022-12-18T09:53:23.168Z,5383
2022-12-18T09:54:23.156Z,5588
2022-12-18T09:55:23.159Z,5898
2022-12-18T09:56:23.180Z,6331
2022-12-18T09:57:23.172Z,5006
2022-12-18T09:58:23.163Z,4589
2022-12-18T09:59:23.158Z,4445
2022-12-18T10:00:23.168Z,4372
2022-12-18T10:01:23.228Z,4290
2022-12-18T10:02:23.363Z,4375
2022-12-18T10:03:23.168Z,4521
2022-12-18T10:04:23.283Z,4237
2022-12-18T10:05:23.177Z,4517
2022-12-18T10:06:23.190Z,5070
2022-12-18T10:07:23.166Z,4884
2022-12-18T10:08:23.158Z,4976
2022-12-18T10:09:23.156Z,5133
2022-12-18T10:10:23.163Z,4670
2022-12-18T10:11:23.176Z,4731
2022-12-18T10:12:23.165Z,4519
2022-12-18T10:13:23.858Z,4534
2022-12-18T10:14:23.172Z,4346
2022-12-18T10:15:23.163Z,4318
2022-12-18T10:16:23.240Z,4478
2022-12-18T10:17:23.173Z,4543
2022-12-18T10:18:23.164Z,4622
2022-12-18T10:19:23.218Z,4851
2022-12-18T10:20:23.195Z,4678
2022-12-18T10:21:23.180Z,4783
2022-12-18T10:22:23.164Z,4525
2022-12-18T10:23:23.242Z,4478
2022-12-18T10:24:23.159Z,4410
2022-12-18T10:25:23.167Z,4497
2022-12-18T10:26:23.230Z,4620
2022-12-18T10:27:23.159Z,4633
2022-12-18T10:28:23.162Z,4650
2022-12-18T10:29:23.168Z,4436
2022-12-18T10:30:23.162Z,4436
2022-12-18T10:31:24.674Z,4506
2022-12-18T10:32:23.170Z,4644
2022-12-18T10:33:23.168Z,4685
2022-12-18T10:34:23.168Z,4608
2022-12-18T10:35:23.183Z,4558
2022-12-18T10:36:23.183Z,4611
2022-12-18T10:37:23.162Z,4521
2022-12-18T10:38:23.169Z,4521
2022-12-18T10:39:23.166Z,4611
2022-12-18T10:40:23.163Z,4501
2022-12-18T10:41:23.181Z,4681
2022-12-18T10:42:23.163Z,4770
2022-12-18T10:43:23.170Z,5078
2022-12-18T10:44:23.169Z,5114
2022-12-18T10:45:23.166Z,4738
2022-12-18T10:46:23.257Z,5120
2022-12-18T10:47:23.176Z,4984
2022-12-18T10:48:23.271Z,4794
2022-12-18T10:49:23.158Z,5658
2022-12-18T10:50:26.179Z,4768
2022-12-18T10:51:23.189Z,4862
2022-12-18T10:52:23.177Z,5030
2022-12-18T10:53:23.163Z,4565
2022-12-18T10:54:23.168Z,4386
2022-12-18T10:55:23.301Z,4348
2022-12-18T10:56:23.181Z,4193
2022-12-18T10:57:23.163Z,4130
2022-12-18T10:58:26.610Z,4361
2022-12-18T10:59:23.169Z,4032
2022-12-18T11:00:23.173Z,4023
2022-12-18T11:01:23.293Z,4080
2022-12-18T11:02:23.308Z,4235
2022-12-18T11:03:23.207Z,4379
2022-12-18T11:04:23.164Z,4477
2022-12-18T11:05:23.184Z,4604
2022-12-18T11:06:23.177Z,4866
2022-12-18T11:07:23.164Z,5208
2022-12-18T11:08:23.163Z,5122
2022-12-18T11:09:23.173Z,4888
2022-12-18T11:10:23.161Z,4926
2022-12-18T11:11:23.181Z,5155
2022-12-18T11:12:23.166Z,4779
2022-12-18T11:13:23.168Z,4657
2022-12-18T11:14:23.164Z,4770
2022-12-18T11:15:23.166Z,4593
2022-12-18T11:16:23.232Z,4810
2022-12-18T11:17:26.090Z,4512
2022-12-18T11:18:23.164Z,4687
2022-12-18T11:19:23.508Z,4902
2022-12-18T11:20:23.175Z,4829
2022-12-18T11:21:23.182Z,5057
2022-12-18T11:22:23.158Z,5177
2022-12-18T11:23:23.158Z,4832
2022-12-18T11:24:23.176Z,4329
2022-12-18T11:25:33.008Z,4829
2022-12-18T11:26:23.172Z,4525
2022-12-18T11:27:23.231Z,4486
2022-12-18T11:28:23.173Z,4698
2022-12-18T11:29:23.197Z,4495
2022-12-18T11:30:23.155Z,4495
2022-12-18T11:31:23.294Z,4567
2022-12-18T11:32:23.161Z,4808
2022-12-18T11:33:23.161Z,4407
2022-12-18T11:34:30.058Z,4344
2022-12-18T11:35:23.207Z,4700
2022-12-18T11:36:23.184Z,4386
2022-12-18T11:37:23.214Z,4156
2022-12-18T11:38:23.229Z,4396
2022-12-18T11:39:23.173Z,4713
2022-12-18T11:40:23.172Z,4254
2022-12-18T11:41:23.175Z,4080
2022-12-18T11:42:23.158Z,4314
2022-12-18T11:43:23.167Z,4077
2022-12-18T11:44:23.170Z,4213
2022-12-18T11:45:23.161Z,4171
2022-12-18T11:46:23.268Z,4528
2022-12-18T11:47:23.168Z,4484
2022-12-18T11:48:23.167Z,4659
2022-12-18T11:49:23.181Z,4325
2022-12-18T11:50:23.181Z,4510
2022-12-18T11:52:12.998Z,4707
2022-12-18T11:53:11.689Z,4725
2022-12-18T11:54:11.685Z,4925
2022-12-18T11:55:11.695Z,5247
2022-12-18T11:56:11.671Z,4405
2022-12-18T11:57:11.685Z,4532
2022-12-18T11:58:11.680Z,4864
2022-12-18T11:59:11.667Z,4908
2022-12-18T12:00:22.635Z,4908
2022-12-18T12:01:19.972Z,4799
2022-12-18T12:02:20.061Z,5170
2022-12-18T12:03:19.909Z,5273
2022-12-18T12:04:19.932Z,6230
2022-12-18T12:05:19.873Z,5374
2022-12-18T12:06:19.884Z,6276
2022-12-18T12:07:19.880Z,5706
2022-12-18T12:08:19.874Z,5437
2022-12-18T12:09:19.871Z,6318
2022-12-18T12:10:19.907Z,5441
2022-12-18T12:11:19.869Z,5564
2022-12-18T12:12:19.882Z,5774
2022-12-18T12:13:19.861Z,6141
2022-12-18T12:14:19.868Z,5822
2022-12-18T12:15:19.866Z,5594
2022-12-18T12:16:19.964Z,5723
2022-12-18T12:17:19.913Z,5448
2022-12-18T12:18:19.858Z,5243
2022-12-18T12:19:19.864Z,5500
2022-12-18T12:20:19.892Z,5605
2022-12-18T12:21:19.868Z,5533
2022-12-18T12:22:19.862Z,4740
2022-12-18T12:23:22.479Z,5157
2022-12-18T12:24:19.847Z,5498
2022-12-18T12:25:45.091Z,4871
2022-12-18T12:26:43.999Z,4912
2022-12-18T12:27:44.019Z,5594
2022-12-18T12:29:02.405Z,5865
2022-12-18T12:30:01.301Z,5865
2022-12-18T12:32:09.316Z,5846
2022-12-18T12:33:08.194Z,4934
2022-12-18T12:34:08.203Z,5409
2022-12-18T12:35:10.030Z,5579
2022-12-18T12:36:08.183Z,5955
2022-12-18T12:37:08.194Z,5507
2022-12-18T12:38:15.640Z,5280
2022-12-18T12:39:14.177Z,5702
2022-12-18T12:40:48.307Z,7123
2022-12-18T12:41:14.186Z,6714
2022-12-18T12:43:13.920Z,6010
2022-12-18T12:44:12.863Z,5771
2022-12-18T12:45:12.827Z,5678
2022-12-18T12:46:12.880Z,4943
2022-12-18T12:47:12.828Z,5573
2022-12-18T12:48:12.853Z,5594
2022-12-18T12:50:10.850Z,5664
2022-12-18T12:51:49.381Z,5892
2022-12-18T12:52:48.351Z,5854
2022-12-18T12:53:48.330Z,5721
2022-12-18T12:54:48.302Z,5536
2022-12-18T12:55:48.370Z,4908
2022-12-18T12:56:48.311Z,4663
2022-12-18T12:57:48.316Z,4821
2022-12-18T12:59:16.491Z,4821
2022-12-18T13:00:15.463Z,4906
2022-12-18T13:01:21.433Z,4772
2022-12-18T13:02:15.441Z,4349
2022-12-18T13:03:15.389Z,4272
2022-12-18T13:04:15.411Z,4353
2022-12-18T13:05:15.404Z,4217
2022-12-18T13:06:15.365Z,4036
2022-12-18T13:07:15.382Z,4871
2022-12-18T13:08:15.405Z,4451
2022-12-18T13:09:15.557Z,4807
2022-12-18T13:10:17.265Z,4093
2022-12-18T13:11:15.385Z,4150
2022-12-18T13:12:15.364Z,4337
2022-12-18T13:13:17.364Z,4309
2022-12-18T13:14:21.680Z,4134
2022-12-18T13:15:20.523Z,4141
2022-12-18T13:16:20.517Z,4549
2022-12-18T13:17:20.522Z,4464
2022-12-18T13:18:20.505Z,4768
2022-12-18T13:19:20.502Z,4412
2022-12-18T13:20:20.633Z,4165
2022-12-18T13:21:20.555Z,4744
2022-12-18T13:22:20.505Z,4051
2022-12-18T13:23:20.538Z,4322
2022-12-18T13:24:20.496Z,3959
2022-12-18T13:25:20.505Z,3004
2022-12-18T13:26:28.171Z,3135
2022-12-18T13:27:20.501Z,2593
2022-12-18T13:28:20.502Z,2503
2022-12-18T13:29:20.506Z,2716
2022-12-18T13:30:20.513Z,2716
2022-12-18T13:31:20.866Z,2938
2022-12-18T13:32:20.499Z,3155
2022-12-18T13:33:20.496Z,3251
2022-12-18T13:34:28.104Z,3144
2022-12-18T13:35:20.505Z,2884
2022-12-18T13:36:20.505Z,2845
2022-12-18T13:37:20.515Z,2875
2022-12-18T13:38:20.511Z,2927
2022-12-18T13:39:26.559Z,2753
2022-12-18T13:40:20.581Z,3048
2022-12-18T13:41:20.498Z,3115
2022-12-18T13:42:20.498Z,3505
2022-12-18T13:43:20.499Z,3367
2022-12-18T13:44:20.506Z,3172
2022-12-18T13:45:20.513Z,2685
2022-12-18T13:46:20.493Z,2573
2022-12-18T13:47:20.498Z,2886
2022-12-18T13:48:20.508Z,2676
2022-12-18T13:49:20.503Z,2230
2022-12-18T13:50:41.410Z,2230
2022-12-18T13:51:40.356Z,2200
2022-12-18T13:52:40.357Z,2021
2022-12-18T13:53:40.685Z,2136
2022-12-18T13:54:40.368Z,2147
2022-12-18T13:55:40.367Z,2125
2022-12-18T13:56:40.340Z,2320
2022-12-18T13:57:40.339Z,2342
2022-12-18T13:58:40.673Z,2115
2022-12-18T13:59:40.339Z,2304
2022-12-18T14:00:40.364Z,2304
2022-12-18T14:01:40.595Z,2364
2022-12-18T14:02:40.444Z,2176
2022-12-18T14:03:40.366Z,2434
2022-12-18T14:04:40.337Z,2479
2022-12-18T14:06:34.299Z,2274
2022-12-18T14:07:33.286Z,2064